Time;durP1;ratioP1;P1;durP2;ratioP2;P2;SDS_P1;SDS_P2;PMS_P1;PMS_P2;Temp;Humidity;BMP_temperature;BMP_pressure;BME280_temperature;BME280_humidity;BME280_pressure;Samples;Min_cycle;Max_cycle;Signal;HPM_P1;HPM_P2
2021/10/29 00:00:11;;;;;;;11.18;8.02;;;10.20;90.10;;;;;;2077908;28;20021;-92
2021/10/29 00:01:12;;;;;;;11.77;8.20;;;10.20;90.10;;;;;;2079179;28;20045;-92
2021/10/29 00:02:12;;;;;;;12.93;8.40;;;10.20;90.10;;;;;;2077137;28;20484;-92
2021/10/29 00:03:13;;;;;;;11.70;8.32;;;10.20;90.10;;;;;;2076812;28;20094;-92
2021/10/29 00:04:13;;;;;;;13.70;8.88;;;10.20;90.10;;;;;;2074069;28;20073;-92
2021/10/29 00:05:14;;;;;;;12.48;8.80;;;10.20;90.10;;;;;;2072715;28;20526;-91
2021/10/29 00:06:15;;;;;;;12.95;8.55;;;10.20;90.20;;;;;;2076062;28;20038;-92
2021/10/29 00:07:15;;;;;;;10.80;7.72;;;10.20;90.20;;;;;;2069036;28;20057;-91
2021/10/29 00:08:16;;;;;;;11.23;8.27;;;10.20;90.20;;;;;;2082289;28;20046;-92
2021/10/29 00:09:17;;;;;;;12.93;9.07;;;10.20;90.20;;;;;;2077091;28;20129;-91
2021/10/29 00:10:19;;;;;;;11.07;7.68;;;10.20;90.20;;;;;;2075526;28;20034;-91
2021/10/29 00:11:20;;;;;;;12.07;8.00;;;10.20;90.20;;;;;;2080140;28;20128;-91
2021/10/29 00:12:22;;;;;;;12.65;8.32;;;10.20;90.20;;;;;;2077438;28;20045;-91
2021/10/29 00:13:22;;;;;;;12.65;8.65;;;10.20;90.10;;;;;;2081850;28;20048;-92
2021/10/29 00:14:25;;;;;;;11.80;8.30;;;10.20;90.10;;;;;;2089406;28;20044;-91
2021/10/29 00:15:26;;;;;;;11.95;8.32;;;10.10;90.10;;;;;;2074367;28;20042;-91
2021/10/29 00:16:27;;;;;;;11.93;8.63;;;10.20;90.10;;;;;;2077243;28;20048;-91
2021/10/29 00:17:27;;;;;;;12.15;8.50;;;10.20;90.10;;;;;;2065921;28;20507;-92
2021/10/29 00:18:28;;;;;;;12.05;8.73;;;10.10;90.10;;;;;;2060837;28;20042;-91
2021/10/29 00:19:29;;;;;;;12.23;8.43;;;10.10;90.10;;;;;;2073447;28;20113;-92
2021/10/29 00:20:30;;;;;;;11.70;8.18;;;10.10;90.10;;;;;;2080216;28;20037;-92
2021/10/29 00:21:31;;;;;;;11.25;8.13;;;10.10;90.10;;;;;;2073958;28;20405;-92
2021/10/29 00:22:31;;;;;;;11.07;7.75;;;10.20;90.10;;;;;;2064351;28;20076;-91
2021/10/29 00:23:32;;;;;;;11.90;8.55;;;10.20;90.10;;;;;;2070833;28;20106;-92
2021/10/29 00:24:33;;;;;;;10.63;7.80;;;10.10;90.10;;;;;;2065802;28;20045;-91
2021/10/29 00:25:33;;;;;;;10.77;7.68;;;10.10;90.10;;;;;;2073786;28;20049;-92
2021/10/29 00:26:34;;;;;;;11.10;8.27;;;10.10;90.00;;;;;;2082824;28;20034;-92
2021/10/29 00:27:35;;;;;;;11.68;7.90;;;10.20;90.10;;;;;;2081145;28;20088;-92
2021/10/29 00:28:36;;;;;;;11.55;7.97;;;10.20;90.10;;;;;;2081360;28;20034;-92
2021/10/29 00:29:36;;;;;;;11.23;7.70;;;10.10;90.00;;;;;;2081482;28;20042;-91
2021/10/29 00:30:37;;;;;;;10.90;7.53;;;10.20;90.10;;;;;;2078921;28;20061;-91
2021/10/29 00:31:37;;;;;;;10.88;7.47;;;10.20;90.10;;;;;;2080178;28;20069;-91
2021/10/29 00:32:38;;;;;;;9.63;7.28;;;10.10;90.00;;;;;;2072962;28;20425;-92
2021/10/29 00:33:39;;;;;;;10.38;7.25;;;10.20;90.30;;;;;;2059901;28;20162;-91
2021/10/29 00:34:39;;;;;;;11.23;7.57;;;10.20;90.00;;;;;;2084575;28;20033;-91
2021/10/29 00:35:40;;;;;;;11.60;7.72;;;10.20;90.00;;;;;;2082146;28;20037;-91
2021/10/29 00:36:41;;;;;;;10.32;7.32;;;10.20;90.00;;;;;;2082301;28;20403;-92
2021/10/29 00:37:42;;;;;;;10.80;7.50;;;10.20;90.00;;;;;;2080879;28;20381;-91
2021/10/29 00:38:42;;;;;;;11.60;7.80;;;10.20;90.00;;;;;;2079863;28;20475;-92
2021/10/29 00:39:43;;;;;;;11.57;7.72;;;10.20;90.00;;;;;;2074624;28;20038;-92
2021/10/29 00:40:44;;;;;;;11.73;7.88;;;10.20;90.00;;;;;;2074497;28;20411;-92
2021/10/29 00:41:45;;;;;;;10.77;7.70;;;10.20;89.90;;;;;;2073959;28;20132;-92
2021/10/29 00:42:45;;;;;;;10.85;7.55;;;10.20;90.20;;;;;;2061917;28;20073;-91
2021/10/29 00:43:46;;;;;;;10.50;7.28;;;10.20;89.80;;;;;;2073988;28;20500;-92
2021/10/29 00:44:47;;;;;;;11.55;8.00;;;10.20;89.80;;;;;;2074186;28;20037;-92
2021/10/29 00:45:48;;;;;;;11.57;7.55;;;10.20;89.80;;;;;;2065843;28;20461;-91
2021/10/29 00:46:50;;;;;;;11.10;7.57;;;10.20;89.80;;;;;;2065910;28;20050;-92
2021/10/29 00:47:52;;;;;;;11.48;7.57;;;10.20;89.80;;;;;;2069012;28;20561;-91
2021/10/29 00:48:53;;;;;;;11.02;7.78;;;10.20;89.80;;;;;;2074349;28;20091;-91
2021/10/29 00:49:54;;;;;;;11.00;7.47;;;10.20;89.70;;;;;;2074275;28;20042;-91
2021/10/29 00:50:55;;;;;;;11.85;8.35;;;10.20;89.80;;;;;;2072438;28;20030;-91
2021/10/29 00:51:56;;;;;;;13.07;8.10;;;10.20;89.70;;;;;;2067440;28;20455;-92
2021/10/29 00:52:57;;;;;;;11.93;8.48;;;10.20;89.80;;;;;;2074852;28;20046;-91
2021/10/29 00:53:57;;;;;;;12.05;8.05;;;10.20;89.80;;;;;;2081453;28;20119;-91
2021/10/29 00:55:00;;;;;;;11.45;8.13;;;10.20;89.70;;;;;;2065103;28;20489;-93
2021/10/29 00:56:01;;;;;;;13.18;8.60;;;10.20;89.70;;;;;;2065390;28;20058;-92
2021/10/29 00:57:02;;;;;;;12.43;8.43;;;10.20;89.70;;;;;;2072894;28;20072;-91
2021/10/29 00:58:03;;;;;;;11.18;7.63;;;10.20;89.70;;;;;;2065426;28;20073;-92
2021/10/29 00:59:04;;;;;;;10.45;7.93;;;10.20;89.70;;;;;;2065086;28;20030;-92
2021/10/29 01:00:05;;;;;;;11.52;8.02;;;10.20;89.70;;;;;;2073357;28;20141;-92
2021/10/29 01:01:06;;;;;;;12.35;8.55;;;10.20;89.70;;;;;;2057787;28;20038;-91
2021/10/29 01:02:07;;;;;;;10.45;7.57;;;10.20;89.70;;;;;;2071954;28;20050;-92
2021/10/29 01:03:08;;;;;;;12.15;7.95;;;10.20;89.70;;;;;;2080862;28;20033;-91
2021/10/29 01:04:09;;;;;;;11.18;7.80;;;10.20;89.70;;;;;;2083062;28;20136;-92
2021/10/29 01:05:09;;;;;;;11.90;8.18;;;10.20;89.70;;;;;;2082643;28;20045;-91
2021/10/29 01:06:11;;;;;;;11.95;8.32;;;10.20;89.70;;;;;;2063616;28;20501;-91
2021/10/29 01:07:12;;;;;;;11.88;8.40;;;10.20;89.70;;;;;;2065976;28;20076;-92
2021/10/29 01:08:14;;;;;;;10.65;7.80;;;10.20;89.70;;;;;;2074132;28;20030;-92
2021/10/29 01:09:15;;;;;;;10.98;8.10;;;10.20;89.70;;;;;;2073681;28;20050;-91
2021/10/29 01:10:16;;;;;;;11.70;7.72;;;10.20;89.70;;;;;;2073634;28;20068;-91
2021/10/29 01:11:19;;;;;;;11.07;7.95;;;10.20;89.70;;;;;;2067176;28;20448;-92
2021/10/29 01:12:20;;;;;;;10.35;7.10;;;10.20;89.70;;;;;;2073645;28;20038;-91
2021/10/29 01:13:21;;;;;;;11.25;7.97;;;10.20;89.70;;;;;;2073240;28;20136;-91
2021/10/29 01:14:21;;;;;;;11.65;8.07;;;10.20;89.70;;;;;;2084591;28;20128;-92
2021/10/29 01:15:22;;;;;;;10.57;7.68;;;10.10;89.60;;;;;;2078664;28;20034;-92
2021/10/29 01:16:23;;;;;;;11.05;7.40;;;10.10;90.10;;;;;;2073538;28;20065;-91
2021/10/29 01:17:24;;;;;;;11.30;7.75;;;10.10;89.70;;;;;;2078212;28;20042;-92
2021/10/29 01:18:25;;;;;;;11.02;7.53;;;10.20;89.80;;;;;;2065505;28;20515;-92
2021/10/29 01:19:32;;;;;;;11.13;7.68;;;10.10;89.80;;;;;;2065013;28;20042;-92
2021/10/29 01:20:32;;;;;;;11.05;7.43;;;10.10;89.90;;;;;;2071429;28;20044;-91
2021/10/29 01:21:33;;;;;;;10.90;7.63;;;10.10;89.90;;;;;;2065754;28;20393;-92
2021/10/29 01:22:34;;;;;;;10.32;7.22;;;10.10;89.90;;;;;;2066834;28;20038;-91
2021/10/29 01:23:36;;;;;;;10.43;7.60;;;10.10;89.90;;;;;;2070942;28;20068;-91
2021/10/29 01:24:37;;;;;;;10.75;7.63;;;10.10;89.90;;;;;;2065290;28;20050;-92
2021/10/29 01:25:37;;;;;;;10.70;7.43;;;10.10;89.90;;;;;;2065155;28;20038;-92
2021/10/29 01:26:38;;;;;;;11.40;7.22;;;10.10;89.90;;;;;;2065508;28;20035;-92
2021/10/29 01:27:39;;;;;;;10.05;7.05;;;10.10;89.90;;;;;;2063610;28;20039;-92
2021/10/29 01:28:40;;;;;;;9.93;6.78;;;10.10;89.90;;;;;;2073158;28;20103;-92
2021/10/29 01:29:41;;;;;;;12.20;7.43;;;10.10;90.00;;;;;;2065534;28;20504;-91
2021/10/29 01:30:42;;;;;;;12.05;8.05;;;10.10;89.90;;;;;;2072962;28;20088;-92
2021/10/29 01:31:43;;;;;;;11.38;7.80;;;10.10;90.00;;;;;;2072146;28;20137;-92
2021/10/29 01:32:43;;;;;;;10.80;7.47;;;10.10;90.00;;;;;;2070506;28;20030;-92
2021/10/29 01:33:44;;;;;;;11.40;7.97;;;10.00;89.90;;;;;;2072559;28;20046;-91
2021/10/29 01:34:45;;;;;;;10.13;7.20;;;10.10;90.00;;;;;;2060085;28;20470;-91
2021/10/29 01:35:45;;;;;;;11.85;7.95;;;10.00;90.00;;;;;;2049271;28;20048;-92
2021/10/29 01:36:46;;;;;;;11.18;7.57;;;10.00;90.00;;;;;;2049345;28;20023;-92
2021/10/29 01:37:47;;;;;;;11.02;7.90;;;10.00;90.00;;;;;;2064716;28;20145;-91
2021/10/29 01:38:50;;;;;;;10.23;7.40;;;10.00;90.00;;;;;;2049225;28;20182;-92
2021/10/29 01:39:51;;;;;;;11.98;8.02;;;10.00;90.00;;;;;;2065551;28;20480;-91
2021/10/29 01:40:52;;;;;;;11.70;8.32;;;10.00;90.00;;;;;;2065317;28;20035;-91
2021/10/29 01:41:53;;;;;;;11.70;7.68;;;10.00;90.00;;;;;;2057040;28;20043;-91
2021/10/29 01:42:53;;;;;;;12.10;7.82;;;10.00;90.00;;;;;;2060759;28;20519;-91
2021/10/29 01:43:54;;;;;;;12.45;8.23;;;10.00;90.00;;;;;;2069406;28;20096;-91
2021/10/29 01:44:54;;;;;;;11.65;7.63;;;10.00;90.00;;;;;;2065360;28;20101;-91
2021/10/29 01:45:56;;;;;;;10.68;7.55;;;10.00;90.00;;;;;;2066267;28;20527;-92
2021/10/29 01:46:57;;;;;;;10.88;7.18;;;10.00;90.00;;;;;;2065202;28;20034;-91
2021/10/29 01:47:58;;;;;;;11.52;7.97;;;9.90;90.00;;;;;;2066282;28;20035;-90
2021/10/29 01:48:58;;;;;;;10.38;7.72;;;10.00;90.00;;;;;;2069229;28;20026;-92
2021/10/29 01:49:59;;;;;;;13.75;8.52;;;10.00;90.00;;;;;;2071932;28;20037;-91
2021/10/29 01:51:00;;;;;;;11.48;7.72;;;10.00;90.00;;;;;;2075698;28;20042;-91
2021/10/29 01:52:01;;;;;;;11.60;7.95;;;10.00;90.00;;;;;;2073328;28;20524;-92
2021/10/29 01:53:02;;;;;;;11.10;7.80;;;10.00;90.00;;;;;;2071697;28;20037;-90
2021/10/29 01:54:02;;;;;;;11.30;7.90;;;10.00;90.00;;;;;;2070897;28;20065;-92
2021/10/29 01:55:05;;;;;;;12.35;8.07;;;9.90;90.00;;;;;;2071662;28;20081;-92
2021/10/29 01:56:06;;;;;;;11.00;7.15;;;10.00;90.00;;;;;;2070089;28;20168;-91
2021/10/29 01:57:07;;;;;;;10.55;7.40;;;10.00;90.00;;;;;;2059601;28;20031;-92
2021/10/29 01:58:08;;;;;;;10.27;7.00;;;9.90;90.00;;;;;;2049272;28;20134;-91
2021/10/29 01:59:08;;;;;;;11.07;7.75;;;10.00;90.00;;;;;;2061820;28;20125;-91
2021/10/29 02:00:10;;;;;;;11.70;7.82;;;10.00;90.30;;;;;;2074572;28;20030;-91
2021/10/29 02:01:11;;;;;;;11.15;7.20;;;9.90;90.00;;;;;;2070963;28;20100;-91
2021/10/29 02:02:12;;;;;;;11.43;7.43;;;9.90;90.00;;;;;;2070259;28;20052;-92
2021/10/29 02:03:12;;;;;;;9.68;7.00;;;9.90;90.00;;;;;;2076410;28;20152;-93
2021/10/29 02:04:13;;;;;;;11.02;7.60;;;9.90;90.00;;;;;;2072524;28;20129;-92
2021/10/29 02:05:13;;;;;;;11.38;7.75;;;9.90;90.00;;;;;;2071638;28;20444;-91
2021/10/29 02:06:14;;;;;;;11.77;8.32;;;9.90;90.00;;;;;;2070260;28;20535;-91
2021/10/29 02:07:15;;;;;;;13.88;8.30;;;9.90;90.00;;;;;;2073031;28;20136;-92
2021/10/29 02:08:18;;;;;;;11.02;7.22;;;9.90;90.00;;;;;;2071740;28;20050;-91
2021/10/29 02:09:19;;;;;;;11.27;7.47;;;9.90;90.30;;;;;;2074420;28;20038;-91
2021/10/29 02:10:19;;;;;;;11.10;7.65;;;9.90;90.00;;;;;;2074477;28;20054;-91
2021/10/29 02:11:20;;;;;;;11.02;7.35;;;9.90;90.00;;;;;;2074696;28;20603;-91
2021/10/29 02:12:21;;;;;;;10.77;7.15;;;9.90;90.00;;;;;;2076098;28;20037;-90
2021/10/29 02:13:22;;;;;;;9.50;6.60;;;9.90;90.00;;;;;;2070467;28;20034;-91
2021/10/29 02:14:23;;;;;;;9.98;7.30;;;9.90;90.00;;;;;;2066995;28;20104;-92
2021/10/29 02:15:23;;;;;;;12.02;7.47;;;9.90;90.00;;;;;;2075291;28;20042;-91
2021/10/29 02:16:24;;;;;;;9.82;7.13;;;9.90;90.00;;;;;;2057215;28;20043;-92
2021/10/29 02:17:25;;;;;;;10.82;7.20;;;9.90;90.00;;;;;;2067438;28;20108;-92
2021/10/29 02:18:26;;;;;;;12.35;7.20;;;9.90;90.00;;;;;;2065776;28;20053;-91
2021/10/29 02:19:27;;;;;;;9.73;6.82;;;10.00;90.00;;;;;;2073642;28;20136;-91
2021/10/29 02:20:27;;;;;;;10.77;7.47;;;10.00;90.00;;;;;;2077516;28;20045;-92
2021/10/29 02:21:29;;;;;;;9.95;6.57;;;9.90;90.30;;;;;;2057238;28;20078;-93
2021/10/29 02:22:30;;;;;;;10.52;6.85;;;9.90;90.00;;;;;;2064770;28;20062;-91
2021/10/29 02:23:30;;;;;;;9.73;6.68;;;10.00;90.00;;;;;;2065343;28;20035;-91
2021/10/29 02:24:31;;;;;;;10.02;6.82;;;9.90;90.00;;;;;;2068456;28;20034;-91
2021/10/29 02:25:32;;;;;;;10.57;6.97;;;10.00;90.00;;;;;;2065205;28;20105;-92
2021/10/29 02:26:34;;;;;;;10.98;6.93;;;10.00;90.00;;;;;;2072486;28;20053;-91
2021/10/29 02:27:34;;;;;;;11.07;7.22;;;9.90;90.00;;;;;;2073368;28;20512;-93
2021/10/29 02:28:35;;;;;;;9.10;6.18;;;9.90;90.00;;;;;;2073336;28;20046;-92
2021/10/29 02:29:36;;;;;;;9.20;6.20;;;10.00;90.00;;;;;;2081774;28;20038;-91
2021/10/29 02:30:37;;;;;;;11.65;6.65;;;10.00;90.00;;;;;;2082139;28;20492;-91
2021/10/29 02:31:40;;;;;;;9.90;6.57;;;10.00;90.00;;;;;;2065359;28;20065;-92
2021/10/29 02:32:41;;;;;;;9.13;6.28;;;10.00;90.00;;;;;;2070030;28;20378;-91
2021/10/29 02:33:41;;;;;;;9.90;6.85;;;10.00;90.00;;;;;;2075571;28;20092;-91
2021/10/29 02:34:42;;;;;;;9.13;6.47;;;10.00;90.00;;;;;;2067403;28;20066;-92
2021/10/29 02:35:44;;;;;;;8.60;6.32;;;10.00;90.00;;;;;;2073173;28;20034;-92
2021/10/29 02:36:45;;;;;;;10.43;6.45;;;10.00;90.00;;;;;;2069387;28;20042;-91
2021/10/29 02:37:45;;;;;;;9.57;6.10;;;10.00;90.00;;;;;;2083007;28;20041;-91
2021/10/29 02:38:46;;;;;;;9.10;6.30;;;10.00;90.00;;;;;;2083715;28;20052;-91
2021/10/29 02:39:47;;;;;;;9.32;6.38;;;10.00;90.30;;;;;;2078286;28;20038;-93
2021/10/29 02:40:48;;;;;;;9.10;6.05;;;10.00;90.00;;;;;;2073752;28;20030;-91
2021/10/29 02:41:49;;;;;;;10.43;6.45;;;10.00;90.00;;;;;;2075474;28;20038;-91
2021/10/29 02:42:50;;;;;;;9.48;6.35;;;10.00;90.00;;;;;;2081290;28;20029;-91
2021/10/29 02:43:51;;;;;;;9.25;6.43;;;10.00;90.00;;;;;;2076651;28;20033;-91
2021/10/29 02:44:52;;;;;;;9.63;6.13;;;10.00;90.30;;;;;;2086602;28;20029;-91
2021/10/29 02:45:53;;;;;;;9.32;6.38;;;10.00;90.00;;;;;;2091794;28;20037;-91
2021/10/29 02:46:53;;;;;;;9.32;6.45;;;10.00;90.00;;;;;;2081629;28;20037;-91
2021/10/29 02:47:54;;;;;;;10.15;6.63;;;10.00;90.00;;;;;;2074844;28;20038;-92
2021/10/29 02:48:55;;;;;;;11.98;7.10;;;10.00;90.00;;;;;;2080783;28;20081;-91
2021/10/29 02:49:55;;;;;;;10.55;7.00;;;10.00;90.20;;;;;;2082381;28;20475;-91
2021/10/29 02:50:56;;;;;;;9.70;6.68;;;10.00;90.00;;;;;;2088718;28;20140;-91
2021/10/29 02:51:57;;;;;;;10.23;6.78;;;10.00;90.00;;;;;;2083168;28;20451;-92
2021/10/29 02:52:57;;;;;;;10.30;6.97;;;10.00;90.00;;;;;;2068586;28;20068;-90
2021/10/29 02:53:59;;;;;;;11.77;6.50;;;10.00;89.90;;;;;;2074791;28;20048;-91
2021/10/29 02:55:00;;;;;;;11.10;6.95;;;10.00;89.90;;;;;;2084614;28;20036;-91
2021/10/29 02:56:00;;;;;;;8.73;6.13;;;10.00;90.20;;;;;;2082171;28;20108;-91
2021/10/29 02:57:01;;;;;;;9.32;6.55;;;10.00;90.20;;;;;;2081889;28;20041;-92
2021/10/29 02:58:03;;;;;;;9.40;6.35;;;10.00;89.90;;;;;;2074540;28;20506;-91
2021/10/29 02:59:03;;;;;;;9.30;6.38;;;10.00;89.90;;;;;;2075351;28;20532;-92
2021/10/29 03:00:11;;;;;;;9.45;6.38;;;10.00;89.90;;;;;;2082241;28;20037;-91
2021/10/29 03:01:11;;;;;;;10.98;6.75;;;10.00;89.90;;;;;;2081908;28;20029;-92
2021/10/29 03:02:12;;;;;;;8.80;6.32;;;10.00;89.90;;;;;;2071102;28;20132;-91
2021/10/29 03:03:13;;;;;;;9.05;5.82;;;10.00;89.90;;;;;;2067104;28;20057;-91
2021/10/29 03:04:13;;;;;;;9.57;6.20;;;10.00;89.90;;;;;;2068365;28;20034;-91
2021/10/29 03:05:15;;;;;;;8.75;6.03;;;10.00;89.90;;;;;;2066115;28;20041;-91
2021/10/29 03:06:15;;;;;;;10.25;6.60;;;10.00;89.80;;;;;;2074391;28;20034;-92
2021/10/29 03:07:16;;;;;;;7.82;5.85;;;10.10;89.90;;;;;;2075575;28;20135;-91
2021/10/29 03:08:16;;;;;;;9.25;6.22;;;10.00;89.80;;;;;;2066384;28;20077;-91
2021/10/29 03:09:17;;;;;;;9.43;6.40;;;10.10;90.20;;;;;;2058485;28;20126;-91
2021/10/29 03:10:18;;;;;;;8.63;5.68;;;10.10;89.90;;;;;;2072282;28;20180;-92
2021/10/29 03:11:19;;;;;;;8.30;5.88;;;10.10;89.80;;;;;;2073656;28;20085;-92
2021/10/29 03:12:19;;;;;;;8.77;5.80;;;10.10;89.80;;;;;;2079138;28;20033;-91
2021/10/29 03:13:21;;;;;;;10.68;6.28;;;10.10;89.80;;;;;;2091640;28;20053;-91
2021/10/29 03:14:21;;;;;;;9.43;6.68;;;10.10;89.80;;;;;;2074768;28;20407;-92
2021/10/29 03:15:22;;;;;;;9.43;6.57;;;10.10;89.80;;;;;;2063378;28;20038;-91
2021/10/29 03:16:23;;;;;;;9.80;6.40;;;10.10;89.80;;;;;;2078946;28;20129;-91
2021/10/29 03:17:23;;;;;;;8.80;6.35;;;10.10;89.80;;;;;;2074266;28;20121;-92
2021/10/29 03:18:24;;;;;;;9.00;6.30;;;10.10;89.80;;;;;;2066470;28;20041;-91
2021/10/29 03:19:25;;;;;;;8.98;6.00;;;10.10;89.80;;;;;;2072367;28;20081;-92
2021/10/29 03:20:25;;;;;;;9.15;6.20;;;10.10;89.80;;;;;;2070192;28;20046;-92
2021/10/29 03:21:26;;;;;;;8.52;5.53;;;10.10;89.80;;;;;;2067313;28;20034;-91
2021/10/29 03:22:26;;;;;;;8.55;5.93;;;10.10;89.80;;;;;;2082548;28;20100;-91
2021/10/29 03:23:27;;;;;;;9.23;6.00;;;10.10;89.80;;;;;;2074827;28;20038;-92
2021/10/29 03:24:28;;;;;;;9.10;5.82;;;10.10;89.80;;;;;;2074531;28;20038;-91
2021/10/29 03:25:28;;;;;;;9.68;6.53;;;10.10;89.80;;;;;;2066279;28;20038;-92
2021/10/29 03:26:29;;;;;;;7.55;5.68;;;10.10;89.80;;;;;;2058422;28;20517;-91
2021/10/29 03:27:30;;;;;;;8.00;5.60;;;10.10;90.10;;;;;;2065673;28;20041;-92
2021/10/29 03:28:31;;;;;;;10.55;6.07;;;10.10;89.80;;;;;;2081083;28;20484;-91
2021/10/29 03:29:31;;;;;;;8.63;5.88;;;10.10;89.80;;;;;;2074033;28;20057;-91
2021/10/29 03:30:33;;;;;;;8.15;5.00;;;10.10;89.80;;;;;;2057576;28;20038;-91
2021/10/29 03:31:33;;;;;;;9.13;6.30;;;10.10;89.80;;;;;;2057549;28;20045;-91
2021/10/29 03:32:34;;;;;;;8.23;5.55;;;10.10;89.80;;;;;;2062290;28;20034;-91
2021/10/29 03:33:38;;;;;;;7.97;5.78;;;10.10;89.80;;;;;;2075131;28;20054;-91
2021/10/29 03:34:38;;;;;;;8.23;5.65;;;10.10;89.80;;;;;;2079933;28;20522;-91
2021/10/29 03:35:39;;;;;;;8.07;5.38;;;10.10;89.90;;;;;;2066426;28;20046;-91
2021/10/29 03:36:40;;;;;;;7.47;5.18;;;10.10;89.90;;;;;;2062987;28;20496;-91
2021/10/29 03:38:06;;;;;;;7.70;5.40;;;10.10;89.90;;;;;;2082676;28;20063;-91
2021/10/29 03:39:11;;;;;;;7.90;5.18;;;10.10;89.90;;;;;;2082813;28;20128;-91
2021/10/29 03:41:23;;;;;;;8.55;5.82;;;10.10;89.90;;;;;;2078116;28;20034;-92
2021/10/29 03:42:31;;;;;;;8.68;5.93;;;10.10;89.80;;;;;;2082976;28;20030;-91
2021/10/29 03:45:00;;;;;;;9.18;6.40;;;10.10;89.80;;;;;;2082185;28;20038;-91
2021/10/29 03:46:06;;;;;;;7.45;5.45;;;10.10;89.80;;;;;;2072421;28;20172;-92
2021/10/29 03:47:07;;;;;;;8.80;5.97;;;10.10;89.80;;;;;;2077226;28;20479;-91
2021/10/29 03:48:08;;;;;;;9.43;5.40;;;10.10;89.80;;;;;;2076624;28;20124;-92
2021/10/29 03:49:27;;;;;;;8.77;5.65;;;10.10;89.80;;;;;;2066479;28;20062;-92
2021/10/29 03:50:30;;;;;;;8.25;5.90;;;10.10;89.80;;;;;;2077003;28;20076;-91
2021/10/29 03:51:41;;;;;;;9.45;5.50;;;10.10;89.90;;;;;;2067305;28;20034;-92
2021/10/29 03:52:51;;;;;;;8.13;5.35;;;10.10;89.90;;;;;;2073764;28;20034;-91
2021/10/29 03:55:08;;;;;;;8.55;5.43;;;10.10;89.90;;;;;;2073230;28;20057;-91
2021/10/29 03:56:17;;;;;;;7.38;5.25;;;10.10;89.90;;;;;;2068871;28;20088;-91
2021/10/29 03:58:23;;;;;;;8.70;5.82;;;10.10;90.00;;;;;;2078327;28;20042;-91
2021/10/29 03:59:24;;;;;;;10.15;6.18;;;10.10;90.00;;;;;;2074833;28;20125;-91
2021/10/29 04:00:29;;;;;;;8.93;5.68;;;10.10;90.00;;;;;;2072113;28;20038;-92
2021/10/29 04:01:30;;;;;;;9.43;5.88;;;10.10;90.00;;;;;;2063862;28;20273;-91
2021/10/29 04:02:30;;;;;;;8.90;6.03;;;10.10;90.00;;;;;;2074659;28;20116;-91
2021/10/29 04:03:31;;;;;;;8.35;5.57;;;10.10;90.00;;;;;;2081177;28;20045;-91
2021/10/29 04:04:32;;;;;;;8.35;5.75;;;10.10;90.00;;;;;;2072957;28;20077;-91
2021/10/29 04:05:34;;;;;;;7.88;5.65;;;10.10;90.00;;;;;;2070950;28;20114;-92
2021/10/29 04:06:34;;;;;;;9.05;5.75;;;10.10;90.00;;;;;;2081329;28;20161;-92
2021/10/29 04:07:35;;;;;;;7.22;5.30;;;10.10;90.00;;;;;;2082731;28;20048;-92
2021/10/29 04:08:36;;;;;;;8.65;5.90;;;10.10;90.00;;;;;;2083560;28;20083;-92
2021/10/29 04:09:37;;;;;;;8.48;5.60;;;10.10;90.00;;;;;;2069543;28;20038;-92
2021/10/29 04:10:45;;;;;;;7.63;5.60;;;10.10;90.00;;;;;;2068141;28;20043;-92
2021/10/29 04:11:46;;;;;;;8.98;5.65;;;10.10;90.00;;;;;;2074078;28;20085;-92
2021/10/29 04:12:46;;;;;;;8.82;5.60;;;10.10;90.00;;;;;;2072379;28;20042;-92
2021/10/29 04:13:47;;;;;;;8.10;5.43;;;10.10;90.30;;;;;;2076017;28;20534;-91
2021/10/29 04:14:49;;;;;;;8.43;5.65;;;10.10;90.00;;;;;;2069059;28;20034;-91
2021/10/29 04:15:50;;;;;;;9.00;5.97;;;10.10;90.00;;;;;;2071464;28;20038;-92
2021/10/29 04:16:50;;;;;;;9.65;6.00;;;10.10;90.00;;;;;;2061134;28;20030;-92
2021/10/29 04:17:51;;;;;;;8.80;6.30;;;10.10;90.00;;;;;;2074043;28;20521;-91
2021/10/29 04:18:52;;;;;;;7.78;5.57;;;10.10;90.00;;;;;;2066771;28;20038;-93
2021/10/29 04:19:52;;;;;;;7.35;4.80;;;10.10;90.10;;;;;;2064456;28;20064;-92
2021/10/29 04:20:54;;;;;;;7.78;5.40;;;10.10;90.00;;;;;;2074650;28;20038;-92
2021/10/29 04:21:54;;;;;;;8.07;5.70;;;10.10;90.00;;;;;;2079106;28;20157;-92
2021/10/29 04:22:55;;;;;;;9.10;5.88;;;10.10;90.00;;;;;;2065901;28;20039;-92
2021/10/29 04:23:56;;;;;;;8.00;5.65;;;10.10;90.00;;;;;;2071916;28;20030;-91
2021/10/29 04:24:56;;;;;;;8.13;5.50;;;10.10;90.00;;;;;;2089995;28;20046;-92
2021/10/29 04:25:58;;;;;;;9.90;5.78;;;10.10;90.10;;;;;;2080537;28;20088;-92
2021/10/29 04:27:00;;;;;;;8.10;5.80;;;10.10;90.10;;;;;;2080972;28;20057;-92
2021/10/29 04:28:07;;;;;;;7.43;5.35;;;10.10;90.10;;;;;;2075296;28;20046;-93
2021/10/29 04:29:17;;;;;;;7.45;5.53;;;10.10;90.10;;;;;;2072851;28;20045;-92
2021/10/29 04:30:20;;;;;;;8.10;5.20;;;10.10;90.00;;;;;;2076380;28;20045;-92
2021/10/29 04:31:25;;;;;;;8.20;5.32;;;10.10;90.00;;;;;;2075764;28;20500;-91
2021/10/29 04:32:26;;;;;;;7.32;5.68;;;10.10;90.00;;;;;;2065744;28;20046;-92
2021/10/29 04:33:27;;;;;;;8.23;5.40;;;10.10;90.00;;;;;;2066049;28;20117;-91
2021/10/29 04:34:27;;;;;;;7.43;4.82;;;10.10;90.00;;;;;;2082069;28;20045;-91
2021/10/29 04:35:29;;;;;;;8.13;5.32;;;10.10;90.10;;;;;;2082150;28;20049;-91
2021/10/29 04:36:29;;;;;;;9.90;5.97;;;10.10;90.10;;;;;;2070909;28;20026;-92
2021/10/29 04:37:30;;;;;;;9.23;6.10;;;10.10;90.10;;;;;;2074313;28;20471;-91
2021/10/29 04:38:31;;;;;;;8.52;5.50;;;10.10;90.10;;;;;;2081654;28;20472;-92
2021/10/29 04:39:31;;;;;;;9.68;5.40;;;10.10;90.10;;;;;;2081163;28;20149;-93
2021/10/29 04:40:34;;;;;;;7.75;5.30;;;10.10;90.10;;;;;;2074354;28;20415;-91
2021/10/29 04:41:34;;;;;;;7.88;5.50;;;10.10;90.10;;;;;;2085157;28;20067;-91
2021/10/29 04:42:37;;;;;;;7.85;5.25;;;10.10;90.10;;;;;;2083515;28;20451;-91
2021/10/29 04:43:38;;;;;;;9.32;5.60;;;10.10;90.10;;;;;;2074588;28;20053;-91
2021/10/29 04:44:39;;;;;;;7.30;5.10;;;10.10;90.10;;;;;;2067928;28;20045;-93
2021/10/29 04:45:40;;;;;;;7.50;5.30;;;10.10;90.10;;;;;;2066014;28;20070;-92
2021/10/29 04:46:40;;;;;;;8.38;5.47;;;10.10;90.10;;;;;;2076104;28;20042;-90
2021/10/29 04:47:41;;;;;;;8.48;5.50;;;10.10;90.10;;;;;;2066369;28;20039;-91
2021/10/29 04:48:42;;;;;;;8.07;5.00;;;10.10;90.10;;;;;;2067191;28;20030;-91
2021/10/29 04:49:43;;;;;;;7.50;5.00;;;10.10;90.10;;;;;;2080949;28;20037;-90
2021/10/29 04:50:43;;;;;;;8.50;5.28;;;10.10;90.10;;;;;;2079227;28;20069;-91
2021/10/29 04:51:44;;;;;;;6.90;5.25;;;10.10;90.10;;;;;;2073790;28;20038;-92
2021/10/29 04:52:45;;;;;;;8.75;5.88;;;10.10;90.10;;;;;;2069547;28;20096;-91
2021/10/29 04:53:45;;;;;;;9.20;5.57;;;10.10;90.10;;;;;;2063068;28;20050;-91
2021/10/29 04:54:46;;;;;;;8.48;5.60;;;10.10;90.10;;;;;;2080692;28;20045;-91
2021/10/29 04:55:46;;;;;;;9.07;5.40;;;10.10;90.10;;;;;;2079773;28;20041;-90
2021/10/29 04:56:48;;;;;;;9.15;5.50;;;10.10;90.10;;;;;;2078828;28;20045;-91
2021/10/29 04:57:48;;;;;;;7.82;5.50;;;10.10;90.10;;;;;;2079880;28;20029;-92
2021/10/29 04:58:49;;;;;;;7.38;5.28;;;10.10;90.10;;;;;;2081879;28;20029;-91
2021/10/29 04:59:50;;;;;;;7.85;5.22;;;10.10;90.10;;;;;;2080711;28;20124;-91
2021/10/29 05:00:51;;;;;;;8.57;5.32;;;10.10;90.10;;;;;;2066576;28;20046;-91
2021/10/29 05:01:51;;;;;;;8.13;5.55;;;10.10;90.10;;;;;;2062606;28;20043;-91
2021/10/29 05:02:54;;;;;;;9.40;5.45;;;10.10;90.10;;;;;;2070810;28;20228;-88
2021/10/29 05:03:55;;;;;;;7.72;5.07;;;10.10;90.10;;;;;;2076978;28;20072;-91
2021/10/29 05:04:55;;;;;;;7.57;5.20;;;10.10;90.10;;;;;;2072856;28;20049;-91
2021/10/29 05:05:56;;;;;;;7.45;5.05;;;10.10;90.10;;;;;;2073455;28;20034;-92
2021/10/29 05:06:57;;;;;;;8.70;5.47;;;10.10;90.10;;;;;;2079898;28;20033;-90
2021/10/29 05:07:57;;;;;;;8.02;5.10;;;10.10;90.10;;;;;;2075528;28;20065;-90
2021/10/29 05:08:58;;;;;;;8.50;5.43;;;10.10;90.10;;;;;;2078256;28;20046;-91
2021/10/29 05:09:59;;;;;;;7.57;5.28;;;10.10;90.10;;;;;;2069633;28;20061;-87
2021/10/29 05:10:59;;;;;;;8.30;5.45;;;10.10;90.10;;;;;;2079380;28;20497;-85
2021/10/29 05:12:00;;;;;;;8.40;5.40;;;10.20;90.10;;;;;;2075612;28;20034;-92
2021/10/29 05:13:01;;;;;;;9.30;5.68;;;10.10;90.10;;;;;;2073696;28;20064;-91
2021/10/29 05:14:01;;;;;;;8.57;5.03;;;10.10;90.10;;;;;;2075052;28;20128;-91
2021/10/29 05:15:03;;;;;;;7.72;5.32;;;10.10;90.10;;;;;;2074356;28;20491;-91
2021/10/29 05:16:04;;;;;;;8.20;5.22;;;10.10;90.10;;;;;;2073284;28;20060;-90
2021/10/29 05:17:04;;;;;;;8.20;5.82;;;10.10;90.10;;;;;;2076367;28;20088;-91
2021/10/29 05:18:05;;;;;;;8.75;5.68;;;10.10;90.40;;;;;;2069655;28;20052;-89
2021/10/29 05:19:05;;;;;;;8.48;5.80;;;10.20;90.10;;;;;;2077832;28;20041;-90
2021/10/29 05:20:07;;;;;;;7.97;5.60;;;10.20;90.10;;;;;;2076040;28;20755;-91
2021/10/29 05:21:08;;;;;;;8.60;5.88;;;10.10;90.10;;;;;;2064779;28;20038;-91
2021/10/29 05:22:08;;;;;;;9.18;5.55;;;10.10;90.10;;;;;;2078026;28;20121;-91